Time;durP1;ratioP1;P1;durP2;ratioP2;P2;SDS_P1;SDS_P2;PMS_P1;PMS_P2;Temp;Humidity;BMP_temperature;BMP_pressure;BME280_temperature;BME280_humidity;BME280_pressure;Samples;Min_cycle;Max_cycle;Signal;HPM_P1;HPM_P2
2022/06/22 00:02:29;;;;;;;0.30;0.30;;;16.50;99.90;;;;;;4301624;33;20064;-67
2022/06/22 00:05:06;;;;;;;0.57;0.57;;;16.60;99.90;;;;;;4304599;33;20064;-67
2022/06/22 00:07:37;;;;;;;1.00;0.80;;;16.70;99.90;;;;;;4303770;33;20075;-67
2022/06/22 00:10:08;;;;;;;;;;;16.50;99.90;;;;;;4304094;33;20346;-66
2022/06/22 00:12:33;;;;;;;1.20;0.70;;;16.30;99.90;;;;;;4303532;33;19959;-67
2022/06/22 00:15:01;;;;;;;0.57;0.57;;;16.30;99.90;;;;;;4304385;33;20137;-67
2022/06/22 00:17:33;;;;;;;0.30;0.30;;;16.50;99.90;;;;;;4300030;33;20113;-67
2022/06/22 00:20:06;;;;;;;0.43;0.43;;;16.40;99.90;;;;;;4301302;33;20122;-66
2022/06/22 00:22:47;;;;;;;0.30;0.30;;;16.40;99.90;;;;;;4268898;33;20143;-66
2022/06/22 00:25:21;;;;;;;;;;;16.40;99.90;;;;;;4290285;33;20105;-66
2022/06/22 00:27:46;;;;;;;0.50;0.50;;;16.40;99.90;;;;;;4301239;33;20011;-66
2022/06/22 00:30:21;;;;;;;0.30;0.30;;;16.50;99.90;;;;;;4302958;33;20061;-66
2022/06/22 00:33:16;;;;;;;2.53;0.73;;;16.40;99.90;;;;;;4291462;33;20117;-66
2022/06/22 00:35:46;;;;;;;0.30;0.30;;;16.20;99.90;;;;;;4303924;33;20055;-66
2022/06/22 00:38:23;;;;;;;1.87;0.82;;;16.20;99.90;;;;;;4304618;33;20137;-66
2022/06/22 00:40:54;;;;;;;1.92;1.05;;;16.10;99.90;;;;;;4303982;33;20542;-66
2022/06/22 00:43:22;;;;;;;1.25;1.10;;;16.10;99.90;;;;;;4302756;33;20107;-66
2022/06/22 00:45:49;;;;;;;2.58;1.08;;;15.90;99.90;;;;;;4300202;33;20088;-66
2022/06/22 00:48:33;;;;;;;0.37;0.37;;;15.90;99.90;;;;;;4304993;33;20068;-66
2022/06/22 00:51:04;;;;;;;0.30;0.30;;;15.80;99.90;;;;;;4296912;33;20548;-66
2022/06/22 00:53:35;;;;;;;0.28;0.28;;;15.90;99.90;;;;;;4277641;33;20087;-66
2022/06/22 00:56:12;;;;;;;1.40;0.70;;;16.00;99.90;;;;;;4299558;33;20206;-66
2022/06/22 00:59:02;;;;;;;2.05;0.65;;;16.10;99.90;;;;;;4303494;33;20092;-66
2022/06/22 01:01:51;;;;;;;0.30;0.30;;;15.90;99.90;;;;;;4300013;33;20100;-66
2022/06/22 01:04:40;;;;;;;0.50;0.50;;;15.70;99.90;;;;;;4302861;33;20410;-66
2022/06/22 01:07:31;;;;;;;0.40;0.40;;;15.70;99.90;;;;;;4293962;33;20064;-66
2022/06/22 01:10:18;;;;;;;1.60;0.88;;;15.70;99.90;;;;;;4287513;33;20188;-66
2022/06/22 01:12:53;;;;;;;0.52;0.52;;;15.60;99.90;;;;;;4302868;33;20544;-66
2022/06/22 01:15:30;;;;;;;0.43;0.40;;;15.60;99.90;;;;;;4303697;33;20463;-66
2022/06/22 01:18:02;;;;;;;0.32;0.32;;;15.60;99.90;;;;;;4302375;33;20565;-66
2022/06/22 01:20:49;;;;;;;0.37;0.37;;;15.60;99.90;;;;;;4302931;33;20060;-66
2022/06/22 01:23:54;;;;;;;0.40;0.40;;;15.60;99.90;;;;;;4279504;33;20100;-66
2022/06/22 01:26:33;;;;;;;0.95;0.88;;;15.50;99.90;;;;;;4300988;33;20104;-66
2022/06/22 01:29:01;;;;;;;0.55;0.50;;;15.60;99.90;;;;;;4302608;33;20072;-66
2022/06/22 01:31:28;;;;;;;0.30;0.30;;;15.60;99.90;;;;;;4298304;33;111197;-66
2022/06/22 01:33:54;;;;;;;0.40;0.40;;;15.60;99.90;;;;;;4303724;33;20510;-66
2022/06/22 01:36:25;;;;;;;0.47;0.47;;;15.50;99.90;;;;;;4301187;33;20413;-67
2022/06/22 01:38:51;;;;;;;0.50;0.40;;;15.50;99.90;;;;;;4300624;33;21551;-66
2022/06/22 01:41:40;;;;;;;0.35;0.35;;;15.50;99.90;;;;;;4301866;33;20057;-66
2022/06/22 01:44:29;;;;;;;0.40;0.40;;;15.50;99.90;;;;;;4299900;33;20478;-66
2022/06/22 01:47:19;;;;;;;2.55;0.98;;;15.40;99.90;;;;;;4299447;33;20524;-66
2022/06/22 01:49:53;;;;;;;0.55;0.55;;;15.30;99.90;;;;;;4301921;33;20060;-66
2022/06/22 01:52:43;;;;;;;0.47;0.47;;;15.40;99.90;;;;;;4280895;33;20438;-66
2022/06/22 01:55:24;;;;;;;0.50;0.40;;;15.40;99.90;;;;;;4288092;33;20165;-66
2022/06/22 01:58:18;;;;;;;0.40;0.40;;;15.30;99.90;;;;;;4302301;33;20080;-66
2022/06/22 02:00:52;;;;;;;0.45;0.43;;;15.20;99.90;;;;;;4301023;33;20843;-67
2022/06/22 02:03:24;;;;;;;6.47;0.82;;;15.20;99.90;;;;;;4299806;33;20459;-67
2022/06/22 02:05:57;;;;;;;0.75;0.75;;;15.20;99.90;;;;;;4299231;33;20189;-67
2022/06/22 02:08:30;;;;;;;2.45;0.40;;;15.10;99.90;;;;;;4300494;33;20604;-67
2022/06/22 02:11:04;;;;;;;0.60;0.60;;;15.10;99.90;;;;;;4302811;33;20067;-67
2022/06/22 02:13:53;;;;;;;0.88;0.60;;;15.20;99.90;;;;;;4302373;33;20104;-67
2022/06/22 02:16:27;;;;;;;0.43;0.43;;;15.10;99.90;;;;;;4302040;33;20108;-67
2022/06/22 02:19:02;;;;;;;0.50;0.50;;;15.10;99.90;;;;;;4303709;33;20351;-67
2022/06/22 02:21:52;;;;;;;0.45;0.45;;;15.10;99.90;;;;;;4293211;33;20229;-66
2022/06/22 02:24:26;;;;;;;0.68;0.68;;;15.10;99.90;;;;;;4276136;33;20073;-66
2022/06/22 02:26:56;;;;;;;0.22;0.22;;;15.00;99.90;;;;;;4298299;33;20141;-66
2022/06/22 02:29:27;;;;;;;0.30;0.30;;;15.10;99.90;;;;;;4300387;33;20104;-66
2022/06/22 02:31:56;;;;;;;0.20;0.20;;;15.00;99.90;;;;;;4301831;33;20505;-66
2022/06/22 02:34:24;;;;;;;1.23;0.57;;;14.70;99.90;;;;;;4303010;33;20072;-66
2022/06/22 02:36:51;;;;;;;0.65;0.65;;;14.70;99.90;;;;;;4302465;33;20099;-66
2022/06/22 02:39:18;;;;;;;0.40;0.40;;;14.70;99.90;;;;;;4302551;33;20518;-66
2022/06/22 02:44:35;;;;;;;0.32;0.32;;;14.80;99.90;;;;;;4300570;33;20173;-66
2022/06/22 02:47:20;;;;;;;0.40;0.40;;;14.80;99.90;;;;;;4300969;33;20067;-66
2022/06/22 02:49:54;;;;;;;1.10;0.55;;;14.90;99.90;;;;;;4301720;33;20072;-66
2022/06/22 02:52:23;;;;;;;0.40;0.40;;;14.90;99.90;;;;;;4283276;33;20831;-66
2022/06/22 02:54:54;;;;;;;0.50;0.50;;;14.80;99.90;;;;;;4287093;33;20100;-66
2022/06/22 02:57:44;;;;;;;4.18;0.75;;;14.70;99.90;;;;;;4303014;33;20125;-66
2022/06/22 03:00:11;;;;;;;0.52;0.45;;;14.60;99.90;;;;;;4304175;33;20501;-66
2022/06/22 03:02:36;;;;;;;0.47;0.47;;;14.60;99.90;;;;;;4303885;33;20287;-66
2022/06/22 03:05:05;;;;;;;0.73;0.68;;;14.70;99.90;;;;;;4306981;33;20068;-66
2022/06/22 03:07:34;;;;;;;3.95;1.73;;;14.70;99.90;;;;;;4306485;33;20100;-66
2022/06/22 03:10:02;;;;;;;0.50;0.50;;;14.60;99.90;;;;;;4304361;33;20161;-66
2022/06/22 03:12:28;;;;;;;0.40;0.40;;;14.60;99.90;;;;;;4306047;33;20124;-67
2022/06/22 03:15:00;;;;;;;0.30;0.30;;;14.60;99.90;;;;;;4305655;33;20095;-67
2022/06/22 03:17:33;;;;;;;3.62;0.95;;;14.60;99.90;;;;;;4289848;33;20532;-67
2022/06/22 03:20:07;;;;;;;4.80;0.90;;;14.50;99.90;;;;;;4307051;33;20403;-66
2022/06/22 03:22:37;;;;;;;0.20;0.20;;;14.50;99.90;;;;;;4281315;33;20273;-67
2022/06/22 03:25:11;;;;;;;0.47;0.47;;;14.50;99.90;;;;;;4289632;33;20117;-66
2022/06/22 03:27:41;;;;;;;0.45;0.45;;;14.60;99.90;;;;;;4304600;33;20202;-66
2022/06/22 03:30:19;;;;;;;0.40;0.40;;;14.60;99.90;;;;;;4304227;33;20056;-66
2022/06/22 03:32:54;;;;;;;2.58;1.10;;;14.70;99.90;;;;;;4303110;33;20103;-66
2022/06/22 03:35:47;;;;;;;0.40;0.40;;;14.70;99.90;;;;;;4304445;33;20092;-66
2022/06/22 03:38:21;;;;;;;0.45;0.45;;;14.70;99.90;;;;;;4302214;33;20124;-66
2022/06/22 03:40:50;;;;;;;1.12;0.70;;;14.70;99.90;;;;;;4305191;33;20528;-66
2022/06/22 03:43:24;;;;;;;0.52;0.52;;;14.70;99.90;;;;;;4304797;33;20092;-66
2022/06/22 03:45:57;;;;;;;0.88;0.52;;;14.80;99.90;;;;;;4303214;33;20121;-66
2022/06/22 03:48:29;;;;;;;0.47;0.40;;;14.90;99.90;;;;;;4305292;33;20088;-66
2022/06/22 03:51:15;;;;;;;2.22;1.00;;;14.90;99.90;;;;;;4298693;33;20064;-66
2022/06/22 03:54:00;;;;;;;0.30;0.30;;;15.00;99.90;;;;;;4280473;33;20540;-66
2022/06/22 03:56:32;;;;;;;0.50;0.50;;;15.10;99.90;;;;;;4304570;33;20142;-66
2022/06/22 03:59:00;;;;;;;1.50;0.88;;;15.20;99.90;;;;;;4305297;33;20389;-66
2022/06/22 04:01:25;;;;;;;0.93;0.50;;;15.20;99.90;;;;;;4305358;33;20081;-66
2022/06/22 04:03:52;;;;;;;0.40;0.40;;;15.30;99.90;;;;;;4305301;33;20557;-67
2022/06/22 04:06:26;;;;;;;0.32;0.32;;;15.20;99.90;;;;;;4302808;33;20075;-66
2022/06/22 04:08:52;;;;;;;0.47;0.40;;;15.30;99.90;;;;;;4304025;33;20103;-66
2022/06/22 04:11:26;;;;;;;1.17;1.08;;;15.40;99.90;;;;;;4302371;33;20060;-66
2022/06/22 04:14:00;;;;;;;0.32;0.32;;;15.40;99.90;;;;;;4303648;33;20089;-66
2022/06/22 04:16:32;;;;;;;0.52;0.52;;;15.50;99.90;;;;;;4302563;33;20092;-66
2022/06/22 04:19:18;;;;;;;0.75;0.75;;;15.60;99.90;;;;;;4301586;33;20088;-66
2022/06/22 04:21:49;;;;;;;3.03;1.58;;;15.70;99.90;;;;;;4275548;33;20153;-66
2022/06/22 04:24:20;;;;;;;0.50;0.50;;;15.70;99.90;;;;;;4236468;33;20104;-67
2022/06/22 04:26:50;;;;;;;0.30;0.30;;;15.80;99.90;;;;;;4250488;33;20072;-67
2022/06/22 04:29:24;;;;;;;0.43;0.43;;;15.90;99.90;;;;;;4241945;33;20114;-67
2022/06/22 04:31:56;;;;;;;0.50;0.50;;;15.90;99.90;;;;;;4237055;33;20508;-67
2022/06/22 04:34:34;;;;;;;2.47;0.80;;;16.00;99.90;;;;;;4269129;33;20423;-67
2022/06/22 04:37:05;;;;;;;0.80;0.70;;;16.00;99.90;;;;;;4298205;33;20937;-67
2022/06/22 04:39:40;;;;;;;8.40;2.15;;;16.10;99.90;;;;;;4303460;33;20083;-67
2022/06/22 04:42:05;;;;;;;1.15;0.57;;;16.10;99.90;;;;;;4303336;33;20092;-67
2022/06/22 04:44:36;;;;;;;0.62;0.52;;;16.20;99.90;;;;;;4301166;33;20088;-67
2022/06/22 04:47:12;;;;;;;0.32;0.32;;;16.20;99.90;;;;;;4302017;33;20075;-67
2022/06/22 04:49:56;;;;;;;6.53;1.02;;;16.30;99.90;;;;;;4304890;33;20387;-67
2022/06/22 04:52:31;;;;;;;0.50;0.50;;;16.40;99.90;;;;;;4264786;33;20553;-67
2022/06/22 04:54:59;;;;;;;0.30;0.30;;;16.40;99.90;;;;;;4236604;33;20221;-67
2022/06/22 04:57:28;;;;;;;0.37;0.37;;;16.50;99.90;;;;;;4293172;33;20068;-67
2022/06/22 04:59:55;;;;;;;2.60;0.65;;;16.50;99.90;;;;;;4302472;33;20438;-67
2022/06/22 05:02:26;;;;;;;0.40;0.40;;;16.70;99.90;;;;;;4273732;33;20095;-67
2022/06/22 05:04:57;;;;;;;2.37;1.33;;;16.70;99.90;;;;;;4263082;33;20099;-67
2022/06/22 05:07:49;;;;;;;0.45;0.45;;;16.80;99.90;;;;;;4261050;33;20417;-67
2022/06/22 05:10:39;;;;;;;0.40;0.40;;;16.90;99.90;;;;;;4241664;33;20194;-67
2022/06/22 05:13:19;;;;;;;0.30;0.30;;;17.00;99.90;;;;;;4237024;33;20072;-67
2022/06/22 05:15:48;;;;;;;6.47;1.87;;;17.20;99.90;;;;;;4248394;33;20080;-67
2022/06/22 05:18:20;;;;;;;1.10;1.00;;;17.20;99.90;;;;;;4222339;33;20240;-67
2022/06/22 05:20:55;;;;;;;1.08;0.60;;;17.30;99.90;;;;;;4202889;33;20600;-67
2022/06/22 05:23:23;;;;;;;0.60;0.60;;;17.40;99.90;;;;;;4157267;33;20489;-67
2022/06/22 05:25:52;;;;;;;0.37;0.37;;;17.60;99.90;;;;;;4165904;33;21029;-67
2022/06/22 05:28:23;;;;;;;0.50;0.50;;;17.60;99.90;;;;;;4185038;33;20413;-67
2022/06/22 05:31:01;;;;;;;0.30;0.30;;;17.80;99.90;;;;;;4190049;33;20333;-67
2022/06/22 05:33:27;;;;;;;3.05;1.80;;;17.90;99.90;;;;;;4213240;33;20490;-67
2022/06/22 05:36:01;;;;;;;0.80;0.75;;;18.00;99.90;;;;;;4214116;33;21414;-67
2022/06/22 05:38:28;;;;;;;0.52;0.52;;;18.00;99.90;;;;;;4200137;33;20657;-67
2022/06/22 05:40:55;;;;;;;0.60;0.52;;;18.10;99.90;;;;;;4220552;33;20367;-67
2022/06/22 05:43:22;;;;;;;0.80;0.75;;;18.30;99.90;;;;;;4233567;33;20303;-67
2022/06/22 05:45:54;;;;;;;1.35;0.75;;;18.30;99.90;;;;;;4250203;33;20096;-67
2022/06/22 05:48:23;;;;;;;1.65;0.68;;;18.40;99.90;;;;;;4264435;33;21528;-67
2022/06/22 05:50:55;;;;;;;2.35;1.20;;;18.50;99.90;;;;;;4256527;33;20267;-67
2022/06/22 05:53:29;;;;;;;0.88;0.88;;;18.60;99.90;;;;;;4254890;33;21680;-67
2022/06/22 05:56:10;;;;;;;0.55;0.45;;;18.70;99.90;;;;;;4273197;33;20084;-67
2022/06/22 05:58:59;;;;;;;0.30;0.30;;;18.80;99.90;;;;;;4267765;33;20977;-67
2022/06/22 06:01:51;;;;;;;0.37;0.37;;;18.80;99.90;;;;;;4248595;33;20306;-67
2022/06/22 06:04:38;;;;;;;0.95;0.47;;;19.00;99.90;;;;;;4230290;33;20869;-67
2022/06/22 06:07:14;;;;;;;1.12;0.93;;;19.10;99.90;;;;;;4249135;33;20821;-67
2022/06/22 06:09:40;;;;;;;0.50;0.50;;;19.20;99.90;;;;;;4264698;33;20460;-67
2022/06/22 06:12:14;;;;;;;0.50;0.50;;;19.30;99.90;;;;;;4269422;33;20138;-67
2022/06/22 06:14:43;;;;;;;0.95;0.95;;;19.40;99.90;;;;;;4271352;33;21863;-67
2022/06/22 06:17:14;;;;;;;0.43;0.43;;;19.50;99.90;;;;;;4274774;33;21094;-68
2022/06/22 06:19:42;;;;;;;4.75;1.25;;;19.60;99.90;;;;;;4258278;33;20095;-67
2022/06/22 06:22:10;;;;;;;0.45;0.45;;;19.70;99.90;;;;;;4254971;33;20949;-68
2022/06/22 06:27:35;;;;;;;0.43;0.43;;;19.80;99.90;;;;;;4277919;33;20107;-67
2022/06/22 06:30:10;;;;;;;1.85;0.73;;;19.90;99.90;;;;;;4265982;33;20141;-67
2022/06/22 06:32:59;;;;;;;0.73;0.70;;;20.00;99.90;;;;;;4263272;33;20104;-67
2022/06/22 06:35:31;;;;;;;0.40;0.40;;;20.10;99.90;;;;;;4257102;33;20213;-67
2022/06/22 06:38:18;;;;;;;0.55;0.55;;;20.20;99.90;;;;;;4264011;33;20165;-67
2022/06/22 06:40:56;;;;;;;3.60;1.20;;;20.30;99.90;;;;;;4273719;33;20092;-67
2022/06/22 06:43:41;;;;;;;0.40;0.40;;;20.40;99.90;;;;;;4272431;33;20613;-67
2022/06/22 06:46:40;;;;;;;0.30;0.30;;;20.50;99.90;;;;;;4272363;33;20117;-67
2022/06/22 06:49:31;;;;;;;0.35;0.35;;;20.60;99.90;;;;;;4264388;33;20228;-67
2022/06/22 06:52:14;;;;;;;0.20;0.20;;;20.70;99.50;;;;;;4268166;33;20080;-67
2022/06/22 06:54:46;;;;;;;0.62;0.62;;;20.80;99.90;;;;;;4274968;33;20103;-67
2022/06/22 06:57:16;;;;;;;0.40;0.40;;;21.00;98.60;;;;;;4276568;33;20198;-67
2022/06/22 06:59:44;;;;;;;0.40;0.40;;;21.10;98.00;;;;;;4269559;33;20088;-67
2022/06/22 07:02:18;;;;;;;0.40;0.40;;;21.10;98.00;;;;;;4270679;33;20108;-67
2022/06/22 07:04:45;;;;;;;1.42;1.00;;;21.20;97.70;;;;;;4244193;33;20123;-67
2022/06/22 07:07:35;;;;;;;0.30;0.30;;;21.30;97.10;;;;;;4262858;33;20180;-67
2022/06/22 07:10:11;;;;;;;0.40;0.40;;;21.40;96.40;;;;;;4272558;33;20113;-67
2022/06/22 07:12:45;;;;;;;0.25;0.25;;;21.40;96.60;;;;;;4266745;33;20170;-67
2022/06/22 07:15:18;;;;;;;0.37;0.37;;;21.50;96.50;;;;;;4270490;33;20139;-67
2022/06/22 07:17:46;;;;;;;0.22;0.22;;;21.50;96.00;;;;;;4275758;33;20329;-67
2022/06/22 07:20:23;;;;;;;0.20;0.20;;;21.70;96.60;;;;;;4256234;33;20863;-67
2022/06/22 07:22:51;;;;;;;0.30;0.30;;;21.70;95.80;;;;;;4256952;33;20525;-68
2022/06/22 07:25:52;;;;;;;0.40;0.40;;;21.90;95.90;;;;;;4270605;33;20203;-67
2022/06/22 07:28:26;;;;;;;0.28;0.28;;;22.00;95.10;;;;;;4262928;33;20111;-68
2022/06/22 07:31:15;;;;;;;0.35;0.35;;;22.10;94.30;;;;;;4260482;33;20134;-68
2022/06/22 07:33:50;;;;;;;0.30;0.30;;;22.10;94.40;;;;;;4238795;33;20824;-68
2022/06/22 07:36:20;;;;;;;1.05;0.50;;;22.30;94.60;;;;;;4254025;33;20300;-67
2022/06/22 07:39:08;;;;;;;0.30;0.30;;;22.40;94.00;;;;;;4262139;33;20111;-68
2022/06/22 07:41:34;;;;;;;10.65;0.52;;;22.50;93.70;;;;;;4274950;33;20087;-67
2022/06/22 07:44:15;;;;;;;0.65;0.40;;;22.60;93.40;;;;;;4277468;33;20100;-68
2022/06/22 07:47:08;;;;;;;0.37;0.35;;;22.80;93.10;;;;;;4277993;33;20100;-68
2022/06/22 07:49:56;;;;;;;0.30;0.30;;;22.90;92.50;;;;;;4249520;33;20705;-68
2022/06/22 07:52:25;;;;;;;0.40;0.40;;;22.90;91.40;;;;;;4259202;33;20136;-68
2022/06/22 07:54:59;;;;;;;13.55;0.50;;;22.90;91.70;;;;;;4252742;33;20509;-68
2022/06/22 07:57:51;;;;;;;0.50;0.40;;;23.00;91.00;;;;;;4266963;33;20083;-68
2022/06/22 08:00:20;;;;;;;0.30;0.30;;;23.10;91.60;;;;;;4265160;33;20104;-68
2022/06/22 08:03:26;;;;;;;1.55;0.93;;;23.30;91.20;;;;;;4256897;33;20225;-68
2022/06/22 08:05:56;;;;;;;0.30;0.30;;;23.40;91.50;;;;;;4256288;33;20384;-69
2022/06/22 08:08:35;;;;;;;0.65;0.65;;;23.40;91.00;;;;;;4266747;33;20099;-66
2022/06/22 08:11:20;;;;;;;3.60;0.45;;;23.40;90.30;;;;;;4273683;33;20222;-67
2022/06/22 08:13:52;;;;;;;0.45;0.45;;;23.40;88.20;;;;;;4278028;33;20128;-67
2022/06/22 08:16:26;;;;;;;0.75;0.68;;;23.40;89.00;;;;;;4279336;33;20800;-67
2022/06/22 08:18:54;;;;;;;0.20;0.20;;;23.40;87.90;;;;;;4266240;33;20102;-67
2022/06/22 08:21:21;;;;;;;0.20;0.20;;;23.60;90.00;;;;;;4273372;33;20107;-67
2022/06/22 08:23:47;;;;;;;0.20;0.20;;;23.60;87.60;;;;;;4265336;33;20389;-67
2022/06/22 08:26:31;;;;;;;0.22;0.22;;;23.80;89.80;;;;;;4274664;33;20601;-67
2022/06/22 08:28:58;;;;;;;0.30;0.30;;;23.80;88.80;;;;;;4270484;33;20076;-68
2022/06/22 08:31:29;;;;;;;0.22;0.22;;;24.10;88.30;;;;;;4270029;33;20801;-67
2022/06/22 08:33:59;;;;;;;0.75;0.70;;;24.10;86.00;;;;;;4249836;33;20798;-67
2022/06/22 08:36:34;;;;;;;0.25;0.25;;;24.10;88.00;;;;;;4263312;33;20068;-67
2022/06/22 08:39:31;;;;;;;0.30;0.30;;;24.30;85.60;;;;;;4266346;33;20214;-67
2022/06/22 08:42:07;;;;;;;0.88;0.22;;;24.30;85.90;;;;;;4251302;33;20640;-67
2022/06/22 08:44:52;;;;;;;0.45;0.45;;;24.30;84.60;;;;;;4271724;33;20470;-66
2022/06/22 08:47:42;;;;;;;2.55;1.37;;;24.40;86.50;;;;;;4273397;33;20116;-66
2022/06/22 08:50:28;;;;;;;;;;;24.60;86.20;;;;;;4269118;33;20080;-67
2022/06/22 08:53:19;;;;;;;0.20;0.20;;;24.70;85.60;;;;;;4262824;33;21323;-67
2022/06/22 08:56:07;;;;;;;0.30;0.30;;;24.70;84.60;;;;;;4265006;33;20125;-68
2022/06/22 08:59:00;;;;;;;1.45;0.30;;;24.60;82.20;;;;;;4265230;33;20096;-68
2022/06/22 09:02:01;;;;;;;0.32;0.32;;;24.60;82.50;;;;;;4256282;33;20219;-69
2022/06/22 09:04:49;;;;;;;0.15;0.15;;;24.70;82.00;;;;;;4242835;33;20248;-69
2022/06/22 09:07:36;;;;;;;0.22;0.22;;;24.70;82.30;;;;;;4258362;33;20227;-67
2022/06/22 09:10:31;;;;;;;0.65;0.60;;;24.90;82.70;;;;;;4263903;33;20207;-68
2022/06/22 09:13:33;;;;;;;0.20;0.20;;;24.90;81.70;;;;;;4260927;33;20120;-68
2022/06/22 09:16:09;;;;;;;0.25;0.25;;;25.00;81.80;;;;;;4274272;33;20121;-68
2022/06/22 09:19:04;;;;;;;8.55;0.55;;;24.90;81.00;;;;;;4264626;33;20198;-68
2022/06/22 09:21:43;;;;;;;0.20;0.20;;;24.70;78.80;;;;;;4260246;33;20662;-69
2022/06/22 09:24:28;;;;;;;0.45;0.45;;;24.70;80.70;;;;;;4256704;33;22013;-68
2022/06/22 09:27:04;;;;;;;2.10;0.40;;;24.80;82.50;;;;;;4265082;33;20843;-68
2022/06/22 09:29:58;;;;;;;0.30;0.30;;;25.00;80.80;;;;;;4256917;33;20593;-68
2022/06/22 09:32:53;;;;;;;0.40;0.40;;;25.00;79.70;;;;;;4240652;33;20375;-67
2022/06/22 09:35:48;;;;;;;9.15;0.85;;;25.10;79.30;;;;;;4238834;33;20705;-67
2022/06/22 09:38:40;;;;;;;0.47;0.47;;;25.10;77.10;;;;;;4260065;33;20124;-68
2022/06/22 09:41:21;;;;;;;0.25;0.25;;;25.30;78.70;;;;;;4261520;33;20238;-67
2022/06/22 09:44:19;;;;;;;0.20;0.20;;;25.40;77.80;;;;;;4275043;33;20230;-67
2022/06/22 09:47:25;;;;;;;0.50;0.50;;;25.20;77.50;;;;;;4276920;33;20111;-70
2022/06/22 09:49:57;;;;;;;0.30;0.20;;;25.30;77.20;;;;;;4247365;33;20165;-68
2022/06/22 09:52:47;;;;;;;0.20;0.20;;;25.50;79.10;;;;;;4271098;33;20146;-68
2022/06/22 09:56:22;;;;;;;0.22;0.22;;;25.60;77.50;;;;;;4271653;33;20082;-69
2022/06/22 09:58:23;;;;;;;0.37;0.37;;;25.80;72.70;;;;;;4277931;33;20076;-69
2022/06/22 10:01:29;;;;;;;0.20;0.20;;;25.70;73.30;;;;;;4264130;33;20322;-68
2022/06/22 10:04:28;;;;;;;0.43;0.40;;;25.90;72.90;;;;;;4250548;33;20179;-67
2022/06/22 10:07:06;;;;;;;0.20;0.20;;;26.10;72.90;;;;;;4255852;33;20103;-69
2022/06/22 10:10:00;;;;;;;0.10;0.10;;;26.10;71.40;;;;;;4270605;33;20511;-68
2022/06/22 10:12:42;;;;;;;0.20;0.20;;;26.30;73.10;;;;;;4262108;33;20156;-69
2022/06/22 10:15:28;;;;;;;0.10;0.10;;;26.30;71.20;;;;;;4262418;33;20096;-68
2022/06/22 10:18:14;;;;;;;0.10;0.10;;;26.60;73.00;;;;;;4262649;33;20100;-69
2022/06/22 10:20:55;;;;;;;0.15;0.15;;;26.70;69.00;;;;;;4267475;33;20379;-69
2022/06/22 10:23:50;;;;;;;0.75;0.40;;;26.70;68.80;;;;;;4264128;33;20373;-68
2022/06/22 10:26:42;;;;;;;0.22;0.22;;;26.90;69.50;;;;;;4272786;33;20334;-68
2022/06/22 10:29:21;;;;;;;0.10;0.10;;;27.30;66.20;;;;;;4273268;33;20987;-68
2022/06/22 10:31:56;;;;;;;0.17;0.17;;;27.40;65.90;;;;;;4267554;33;20109;-68
2022/06/22 10:34:47;;;;;;;0.22;0.22;;;27.50;63.60;;;;;;4244568;33;20404;-68
2022/06/22 10:37:25;;;;;;;1.35;0.62;;;27.40;62.40;;;;;;4263648;33;20104;-68
2022/06/22 10:40:09;;;;;;;0.10;0.10;;;27.40;60.80;;;;;;4264719;33;20093;-68
2022/06/22 10:45:14;;;;;;;0.28;0.28;;;27.50;62.60;;;;;;4266262;33;20079;-68
2022/06/22 10:45:49;;;;;;;0.20;0.13;;;27.40;62.10;;;;;;4269708;33;21255;-68
2022/06/22 10:48:39;;;;;;;2.03;0.73;;;27.60;62.00;;;;;;4269299;33;20208;-67
2022/06/22 10:51:15;;;;;;;0.10;0.10;;;27.70;62.60;;;;;;4276172;33;20112;-68
2022/06/22 10:54:00;;;;;;;0.05;0.05;;;27.90;64.00;;;;;;4270364;33;20176;-68
2022/06/22 10:56:52;;;;;;;0.10;0.10;;;28.10;62.20;;;;;;4275203;33;20112;-68
2022/06/22 10:59:54;;;;;;;0.30;0.30;;;28.40;60.50;;;;;;4261734;33;20095;-68
2022/06/22 11:03:00;;;;;;;1.52;0.30;;;28.60;60.30;;;;;;4270455;33;20127;-68
2022/06/22 11:05:53;;;;;;;0.43;0.40;;;28.40;59.10;;;;;;4250844;33;20104;-68
2022/06/22 11:08:59;;;;;;;0.10;0.10;;;28.80;56.00;;;;;;4269577;33;20236;-68
2022/06/22 11:11:34;;;;;;;0.10;0.10;;;29.00;60.50;;;;;;4266668;33;20104;-67
2022/06/22 11:14:21;;;;;;;0.30;0.10;;;29.40;54.10;;;;;;4274580;33;20620;-68
2022/06/22 11:17:03;;;;;;;0.10;0.10;;;29.70;53.30;;;;;;4277728;33;20088;-68
2022/06/22 11:20:03;;;;;;;1.27;0.45;;;29.70;53.20;;;;;;4265511;33;20103;-68
2022/06/22 11:22:35;;;;;;;0.30;0.30;;;29.70;55.10;;;;;;4274629;33;20105;-68
2022/06/22 11:30:53;;;;;;;2.03;0.20;;;29.90;56.50;;;;;;4260771;33;20089;-68
2022/06/22 11:31:56;;;;;;;0.10;0.10;;;30.30;56.30;;;;;;4267053;33;20071;-68
2022/06/22 11:34:49;;;;;;;0.10;0.10;;;30.40;55.00;;;;;;4251710;33;20103;-68
2022/06/22 11:37:37;;;;;;;0.08;0.08;;;30.10;54.80;;;;;;4262063;33;20578;-68
2022/06/22 11:40:36;;;;;;;0.00;0.00;;;30.00;55.90;;;;;;4264836;33;20221;-68
2022/06/22 11:43:31;;;;;;;15.75;0.65;;;30.50;57.10;;;;;;4267550;33;20352;-68
2022/06/22 11:46:07;;;;;;;0.10;0.10;;;31.00;56.30;;;;;;4273829;33;20093;-70
2022/06/22 11:49:04;;;;;;;0.10;0.10;;;31.10;53.10;;;;;;4265468;33;20085;-70
2022/06/22 11:52:09;;;;;;;0.00;0.00;;;30.80;54.50;;;;;;4269373;33;20299;-69
2022/06/22 11:54:50;;;;;;;1.17;0.28;;;30.50;54.70;;;;;;4263832;33;20768;-70
2022/06/22 11:57:47;;;;;;;0.08;0.08;;;31.30;52.70;;;;;;4272435;33;20091;-70
2022/06/22 12:00:34;;;;;;;0.20;0.20;;;31.60;51.60;;;;;;4276971;33;20477;-67
2022/06/22 12:03:40;;;;;;;0.20;0.20;;;32.20;51.60;;;;;;4258769;33;20189;-69
2022/06/22 12:06:30;;;;;;;0.20;0.20;;;31.90;51.50;;;;;;4259770;33;20088;-67
2022/06/22 12:09:11;;;;;;;4.95;0.93;;;31.90;50.00;;;;;;4266751;33;20612;-67
2022/06/22 12:11:45;;;;;;;0.20;0.20;;;32.30;51.50;;;;;;4259226;33;20103;-68
2022/06/22 12:15:09;;;;;;;0.20;0.20;;;33.00;48.70;;;;;;4271513;33;20069;-67
2022/06/22 12:17:30;;;;;;;0.20;0.20;;;33.50;48.00;;;;;;4257850;33;20519;-67
2022/06/22 12:20:04;;;;;;;0.17;0.17;;;33.30;49.30;;;;;;4266894;33;20179;-67
2022/06/22 12:22:49;;;;;;;0.17;0.10;;;33.30;49.30;;;;;;4271744;33;20072;-70
2022/06/22 12:25:24;;;;;;;0.20;0.20;;;33.00;49.10;;;;;;4272021;33;20172;-70
2022/06/22 12:28:08;;;;;;;0.10;0.10;;;33.00;49.50;;;;;;4271930;33;20545;-67
2022/06/22 12:30:43;;;;;;;0.10;0.10;;;33.30;48.10;;;;;;4258513;33;20558;-66
2022/06/22 12:33:19;;;;;;;0.10;0.10;;;33.30;47.40;;;;;;4259364;33;20096;-67
2022/06/22 12:36:08;;;;;;;0.10;0.10;;;33.40;47.20;;;;;;4247801;33;20302;-67
2022/06/22 12:38:40;;;;;;;0.10;0.10;;;34.20;45.40;;;;;;4258754;33;20076;-67
2022/06/22 12:41:24;;;;;;;0.20;0.20;;;34.10;45.50;;;;;;4254076;33;20277;-68
2022/06/22 12:44:18;;;;;;;0.20;0.20;;;34.10;45.30;;;;;;4261088;33;20665;-69
2022/06/22 12:47:14;;;;;;;0.30;0.30;;;34.70;45.00;;;;;;4255105;33;20244;-67
2022/06/22 12:49:55;;;;;;;0.10;0.10;;;35.00;43.40;;;;;;4255858;33;20104;-68
2022/06/22 12:52:28;;;;;;;0.20;0.20;;;35.00;41.00;;;;;;4266414;33;20092;-68
2022/06/22 12:54:59;;;;;;;1.00;0.50;;;34.80;42.90;;;;;;4261865;33;20885;-67
2022/06/22 12:57:32;;;;;;;0.10;0.10;;;34.40;42.40;;;;;;4265150;33;21087;-68
2022/06/22 13:00:06;;;;;;;0.10;0.10;;;34.70;41.80;;;;;;4262396;33;20161;-67
2022/06/22 13:02:36;;;;;;;0.40;0.40;;;34.90;40.70;;;;;;4258855;33;20104;-69
2022/06/22 13:05:08;;;;;;;0.28;0.28;;;35.40;39.90;;;;;;4246991;33;20092;-67
2022/06/22 13:07:44;;;;;;;0.10;0.10;;;35.20;41.00;;;;;;4257161;33;20241;-67
2022/06/22 13:10:15;;;;;;;0.10;0.10;;;35.10;39.90;;;;;;4259893;33;20122;-68
2022/06/22 13:12:54;;;;;;;0.10;0.10;;;35.30;41.10;;;;;;4256416;33;20399;-68
2022/06/22 13:15:26;;;;;;;0.20;0.20;;;35.40;39.50;;;;;;4268148;33;20313;-68
2022/06/22 13:18:25;;;;;;;0.10;0.10;;;35.10;40.20;;;;;;4265036;33;20641;-68
2022/06/22 13:20:59;;;;;;;0.17;0.17;;;35.00;39.60;;;;;;4266356;33;20753;-68
2022/06/22 13:23:49;;;;;;;0.10;0.10;;;35.00;40.30;;;;;;4256603;33;21014;-68
2022/06/22 13:26:54;;;;;;;0.10;0.10;;;35.30;40.50;;;;;;4266889;33;20109;-69
2022/06/22 13:29:31;;;;;;;0.20;0.20;;;35.10;40.80;;;;;;4254136;33;20104;-68
2022/06/22 13:32:00;;;;;;;0.35;0.35;;;35.60;39.80;;;;;;4265169;33;20515;-68
2022/06/22 13:34:52;;;;;;;0.10;0.10;;;36.20;42.10;;;;;;4241621;33;20100;-69
2022/06/22 13:37:41;;;;;;;0.20;0.20;;;36.50;39.20;;;;;;4255466;33;20310;-68
2022/06/22 13:40:33;;;;;;;0.60;0.43;;;36.00;38.10;;;;;;4257986;33;20630;-68
2022/06/22 13:43:29;;;;;;;2.65;0.57;;;36.30;37.60;;;;;;4253119;33;20437;-68
2022/06/22 13:46:34;;;;;;;0.10;0.10;;;35.80;38.40;;;;;;4270057;33;20087;-67
2022/06/22 13:49:35;;;;;;;0.20;0.20;;;35.80;40.10;;;;;;4249759;33;20064;-67
2022/06/22 13:52:25;;;;;;;0.15;0.15;;;36.00;38.70;;;;;;4271871;33;20626;-67
2022/06/22 13:55:12;;;;;;;0.40;0.35;;;36.30;38.80;;;;;;4269447;33;20072;-68
2022/06/22 13:57:59;;;;;;;0.65;0.35;;;37.00;38.20;;;;;;4275750;33;20115;-67
2022/06/22 14:00:32;;;;;;;0.25;0.25;;;36.90;38.40;;;;;;4267844;33;20620;-69
2022/06/22 14:03:13;;;;;;;0.60;0.45;;;36.80;39.60;;;;;;4257578;33;20422;-69